Time;durP1;ratioP1;P1;durP2;ratioP2;P2;SDS_P1;SDS_P2;PMS_P1;PMS_P2;Temp;Humidity;BMP_temperature;BMP_pressure;BME280_temperature;BME280_humidity;BME280_pressure;Samples;Min_cycle;Max_cycle;Signal;HPM_P1;HPM_P2
2021/06/19 00:00:40;;;;;;;18.63;17.13;;;;;;;27.92;56.15;101041.00;6256276;28;20577;-63
2021/06/19 00:04:03;;;;;;;20.10;18.70;;;;;;;27.63;56.41;101049.44;6259906;28;20228;-62
2021/06/19 00:07:24;;;;;;;20.27;18.85;;;;;;;27.24;57.66;101037.28;6271794;28;20608;-61
2021/06/19 00:10:45;;;;;;;19.48;17.98;;;;;;;27.87;55.76;101051.16;6263312;28;20228;-63
2021/06/19 00:14:06;;;;;;;21.23;19.38;;;;;;;28.33;54.85;101085.03;6252811;28;20228;-61
2021/06/19 00:17:27;;;;;;;19.88;18.17;;;;;;;28.46;54.10;101092.94;6256971;28;20227;-61
2021/06/19 00:20:49;;;;;;;18.90;17.33;;;;;;;28.31;54.43;101097.69;6264362;28;20223;-62
2021/06/19 00:24:11;;;;;;;17.67;16.27;;;;;;;28.23;54.69;101102.81;6259081;28;20325;-62
2021/06/19 00:27:32;;;;;;;17.90;16.50;;;;;;;28.61;53.42;101088.19;6261825;28;20223;-62
2021/06/19 00:30:53;;;;;;;17.65;16.23;;;;;;;28.35;54.08;101068.84;6261847;28;20255;-61
2021/06/19 00:34:14;;;;;;;17.65;16.05;;;;;;;28.35;53.62;101052.78;6267458;28;20222;-62
2021/06/19 00:37:37;;;;;;;17.27;15.88;;;;;;;28.53;53.32;101067.38;6258102;28;20251;-61
2021/06/19 00:40:58;;;;;;;17.48;16.08;;;;;;;28.80;52.45;101079.50;6248807;28;20527;-63
2021/06/19 00:44:20;;;;;;;18.13;16.63;;;;;;;28.73;52.61;101065.78;6269877;28;20250;-61
2021/06/19 00:47:41;;;;;;;18.13;16.85;;;;;;;28.60;52.77;101057.88;6259777;28;20235;-62
2021/06/19 00:51:02;;;;;;;18.50;17.35;;;;;;;28.74;52.70;101056.75;6279744;28;20238;-62
2021/06/19 00:54:25;;;;;;;16.83;15.43;;;;;;;28.84;52.18;101032.72;6287380;28;20563;-62
2021/06/19 00:57:46;;;;;;;16.27;15.13;;;;;;;28.68;52.57;101038.50;6283480;28;20417;-62
2021/06/19 01:01:07;;;;;;;19.45;17.95;;;;;;;28.74;52.35;101053.22;6281962;28;20231;-63
2021/06/19 01:04:29;;;;;;;16.80;15.65;;;;;;;28.53;53.19;101042.44;6258990;28;20219;-62
2021/06/19 01:07:49;;;;;;;16.73;15.57;;;;;;;28.58;52.60;101035.72;6260352;28;20235;-61
2021/06/19 01:11:12;;;;;;;17.13;15.90;;;;;;;28.58;52.83;101043.75;6256761;28;20556;-62
2021/06/19 01:14:33;;;;;;;17.02;15.60;;;;;;;28.52;53.15;101038.03;6262819;28;20240;-62
2021/06/19 01:17:53;;;;;;;17.20;15.90;;;;;;;28.40;53.59;101035.38;6254201;28;20499;-61
2021/06/19 01:21:15;;;;;;;18.45;17.05;;;;;;;28.46;53.21;101024.16;6264247;28;20231;-62
2021/06/19 01:24:37;;;;;;;18.67;17.17;;;;;;;28.10;54.17;101021.78;6249320;28;20850;-63
2021/06/19 01:27:59;;;;;;;19.55;18.15;;;;;;;28.19;54.26;101029.03;6259025;28;20223;-63
2021/06/19 01:31:21;;;;;;;18.75;17.20;;;;;;;28.21;54.09;101019.94;6256994;28;20588;-61
2021/06/19 01:34:42;;;;;;;20.23;18.73;;;;;;;28.14;54.43;101039.28;6259638;28;20228;-62
2021/06/19 01:38:06;;;;;;;20.05;18.42;;;;;;;28.21;53.80;101036.00;6258396;28;20669;-62
2021/06/19 01:41:30;;;;;;;19.65;18.05;;;;;;;28.05;54.56;101025.69;6253571;28;20224;-62
2021/06/19 01:44:51;;;;;;;19.23;17.73;;;;;;;27.93;55.01;101031.13;6255685;28;20231;-63
2021/06/19 01:48:12;;;;;;;19.40;17.95;;;;;;;28.18;54.27;101040.75;6265354;28;20606;-62
2021/06/19 01:51:33;;;;;;;19.67;18.08;;;;;;;28.11;54.51;101039.53;6268255;28;20220;-63
2021/06/19 01:54:54;;;;;;;20.45;18.88;;;;;;;28.08;54.26;101035.28;6260579;28;20228;-61
2021/06/19 01:58:16;;;;;;;20.48;18.98;;;;;;;27.94;55.16;101035.53;6251581;28;20239;-61
2021/06/19 02:01:37;;;;;;;22.20;20.70;;;;;;;27.73;55.75;101035.34;6254820;28;20228;-61
2021/06/19 02:04:59;;;;;;;21.92;20.33;;;;;;;27.74;55.54;101023.66;6263994;28;20231;-62
2021/06/19 02:08:20;;;;;;;20.58;19.17;;;;;;;27.57;56.01;101015.16;6264282;28;20227;-61
2021/06/19 02:11:41;;;;;;;19.83;18.42;;;;;;;27.56;56.40;101018.78;6257050;28;20244;-62
2021/06/19 02:15:04;;;;;;;20.85;19.17;;;;;;;27.84;55.47;101027.31;6268283;28;20315;-61
2021/06/19 02:18:26;;;;;;;19.65;18.35;;;;;;;27.87;55.24;101013.72;6262545;28;20240;-61
2021/06/19 02:21:47;;;;;;;20.02;18.13;;;;;;;27.72;55.86;101015.75;6249865;28;20239;-62
2021/06/19 02:25:11;;;;;;;20.85;19.02;;;;;;;27.81;55.48;101016.88;6272217;28;20231;-61
2021/06/19 02:28:32;;;;;;;19.92;18.42;;;;;;;27.87;54.88;101019.91;6257947;28;20243;-61
2021/06/19 02:31:54;;;;;;;21.48;19.85;;;;;;;27.54;56.12;101014.53;6262807;28;20228;-61
2021/06/19 02:35:15;;;;;;;21.77;19.95;;;;;;;27.26;56.96;101019.34;6274592;28;20223;-63
2021/06/19 02:38:36;;;;;;;21.33;19.83;;;;;;;27.38;56.97;101013.03;6258860;28;20223;-62
2021/06/19 02:41:57;;;;;;;23.33;21.35;;;;;;;26.99;58.09;101014.25;6256815;28;20769;-61
2021/06/19 02:45:19;;;;;;;21.25;19.77;;;;;;;27.18;57.72;101022.56;6265092;28;20491;-62
2021/06/19 02:48:41;;;;;;;21.80;20.17;;;;;;;27.27;57.06;101024.53;6250864;28;20240;-62
2021/06/19 02:52:02;;;;;;;21.35;19.95;;;;;;;27.30;57.13;101029.69;6262409;28;20669;-62
2021/06/19 02:55:25;;;;;;;22.40;20.73;;;;;;;27.18;57.20;101027.91;6264745;28;20227;-61
2021/06/19 02:58:46;;;;;;;23.35;21.65;;;;;;;27.03;58.17;101032.59;6262039;28;20322;-62
2021/06/19 03:02:07;;;;;;;22.88;21.38;;;;;;;27.23;57.36;101025.72;6247857;28;20255;-62
2021/06/19 03:05:30;;;;;;;22.65;20.75;;;;;;;27.34;56.94;101027.63;6268355;28;20231;-61
2021/06/19 03:08:51;;;;;;;21.70;20.10;;;;;;;27.24;57.53;101039.97;6264987;28;20239;-62
2021/06/19 03:12:13;;;;;;;23.45;21.85;;;;;;;27.43;57.13;101034.06;6261229;28;20231;-63
2021/06/19 03:15:34;;;;;;;22.73;21.13;;;;;;;27.46;56.83;101034.69;6261712;28;20505;-61
2021/06/19 03:18:55;;;;;;;23.52;21.85;;;;;;;27.39;56.89;101052.16;6269811;28;20223;-61
2021/06/19 03:22:17;;;;;;;22.23;20.63;;;;;;;27.00;58.82;101042.66;6260764;28;20322;-62
2021/06/19 03:25:42;;;;;;;25.15;23.25;;;;;;;26.88;59.35;101037.25;6266203;28;20239;-62
2021/06/19 03:29:05;;;;;;;23.52;21.90;;;;;;;26.61;60.44;101037.47;6262673;28;20217;-62
2021/06/19 03:32:26;;;;;;;24.13;22.33;;;;;;;27.13;58.84;101031.91;6258290;28;20223;-62
2021/06/19 03:35:47;;;;;;;24.15;22.25;;;;;;;27.50;57.58;101036.16;6262632;28;20377;-62
2021/06/19 03:39:15;;;;;;;26.25;24.20;;;;;;;27.48;57.68;101034.56;6261938;28;20224;-62
2021/06/19 03:42:37;;;;;;;27.42;25.20;;;;;;;27.64;57.31;101037.75;6266092;28;20593;-63
2021/06/19 03:45:57;;;;;;;26.52;24.63;;;;;;;27.49;57.77;101044.28;6260346;28;20227;-63
2021/06/19 03:49:18;;;;;;;25.75;23.95;;;;;;;27.26;58.76;101038.91;6260611;28;20236;-62
2021/06/19 03:52:39;;;;;;;28.27;25.70;;;;;;;27.58;57.75;101038.25;6255732;28;20243;-63
2021/06/19 03:56:02;;;;;;;28.60;25.88;;;;;;;27.71;57.38;101037.31;6263844;28;20327;-63
2021/06/19 03:59:23;;;;;;;26.77;24.83;;;;;;;27.72;57.41;101036.31;6260733;28;20223;-62
2021/06/19 04:02:44;;;;;;;25.33;23.52;;;;;;;27.53;58.46;101037.75;6259143;28;20235;-63
2021/06/19 04:06:05;;;;;;;28.40;25.90;;;;;;;26.79;60.71;101047.75;6268291;28;20305;-62
2021/06/19 04:09:26;;;;;;;29.55;27.45;;;;;;;26.58;61.73;101051.03;6247538;28;20316;-62
2021/06/19 04:12:49;;;;;;;29.70;27.58;;;;;;;26.70;60.80;101044.81;6261302;28;20251;-61
2021/06/19 04:16:11;;;;;;;28.35;26.23;;;;;;;26.68;61.16;101053.91;6258919;28;20227;-62
2021/06/19 04:19:31;;;;;;;27.90;25.80;;;;;;;26.76;60.92;101050.69;6260859;28;20220;-61
2021/06/19 04:22:53;;;;;;;30.77;27.95;;;;;;;26.40;62.19;101050.53;6258060;28;20572;-62
2021/06/19 04:26:14;;;;;;;31.02;28.65;;;;;;;26.56;61.71;101060.09;6268528;28;22045;-62
2021/06/19 04:29:36;;;;;;;25.05;23.10;;;;;;;26.62;61.57;101070.34;6254176;28;20669;-61
2021/06/19 04:32:57;;;;;;;28.20;25.90;;;;;;;26.53;61.99;101078.06;6259718;28;20232;-62
2021/06/19 04:36:19;;;;;;;29.42;27.13;;;;;;;26.63;61.32;101080.09;6264838;28;20219;-62
2021/06/19 04:39:46;;;;;;;30.00;27.65;;;;;;;26.88;60.86;101074.66;6262918;28;20235;-62
2021/06/19 04:43:09;;;;;;;30.63;28.38;;;;;;;26.50;61.82;101075.63;6259607;28;20231;-62
2021/06/19 04:46:31;;;;;;;27.27;25.38;;;;;;;26.80;60.95;101074.38;6244521;28;20232;-62
2021/06/19 04:49:52;;;;;;;27.23;25.20;;;;;;;27.32;59.24;101074.13;6251022;28;20228;-62
2021/06/19 04:53:13;;;;;;;30.33;27.83;;;;;;;26.78;61.09;101081.66;6263377;28;20365;-61
2021/06/19 04:56:34;;;;;;;26.23;24.13;;;;;;;27.37;59.32;101082.69;6261047;28;20236;-61
2021/06/19 04:59:57;;;;;;;29.30;26.85;;;;;;;27.63;58.15;101083.38;6259134;28;20394;-62
2021/06/19 05:03:19;;;;;;;27.85;25.63;;;;;;;27.64;58.33;101080.56;6260379;28;20232;-63
2021/06/19 05:06:40;;;;;;;30.23;27.73;;;;;;;27.91;57.43;101079.41;6262175;28;20245;-62
2021/06/19 05:10:05;;;;;;;28.70;26.45;;;;;;;27.61;58.46;101080.81;6258846;28;20240;-62
2021/06/19 05:13:25;;;;;;;28.65;26.70;;;;;;;27.57;58.63;101079.34;6261639;28;20228;-62
2021/06/19 05:16:46;;;;;;;25.77;23.77;;;;;;;28.08;57.13;101089.66;6255473;28;20503;-62
2021/06/19 05:20:09;;;;;;;27.60;25.45;;;;;;;27.92;57.04;101094.53;6257974;28;20227;-63
2021/06/19 05:23:30;;;;;;;26.00;24.00;;;;;;;27.66;57.88;101099.16;6264421;28;20249;-61
2021/06/19 05:26:51;;;;;;;27.55;25.55;;;;;;;27.06;59.03;101099.19;6259257;28;20231;-63
2021/06/19 05:30:13;;;;;;;25.27;23.45;;;;;;;26.90;59.49;101102.09;6258043;28;20231;-62
2021/06/19 05:33:34;;;;;;;29.02;26.77;;;;;;;26.90;59.66;101102.09;6281690;28;20616;-61
2021/06/19 05:36:56;;;;;;;27.27;25.15;;;;;;;27.22;58.47;101111.38;6276899;28;20695;-62
2021/06/19 05:40:18;;;;;;;24.58;22.45;;;;;;;27.08;57.71;101121.31;6283108;28;20314;-62
2021/06/19 05:43:38;;;;;;;24.17;22.05;;;;;;;27.09;58.52;101116.81;6284643;28;21101;-61
2021/06/19 05:46:59;;;;;;;24.92;22.95;;;;;;;27.48;56.60;101120.16;6285084;28;20532;-63
2021/06/19 05:50:20;;;;;;;22.35;20.65;;;;;;;28.12;55.27;101116.19;6287723;28;20239;-61
2021/06/19 05:53:42;;;;;;;23.08;21.27;;;;;;;27.92;55.00;101123.97;6268958;28;20240;-62
2021/06/19 05:57:03;;;;;;;23.67;21.55;;;;;;;27.68;55.11;101138.22;6267355;28;20231;-62
2021/06/19 06:00:25;;;;;;;20.45;18.58;;;;;;;28.05;53.87;101134.53;6243483;28;20227;-61
2021/06/19 06:03:48;;;;;;;23.20;21.20;;;;;;;27.52;55.32;101139.50;6266981;28;20683;-61
2021/06/19 06:07:09;;;;;;;20.75;18.95;;;;;;;27.52;55.67;101128.81;6269597;28;20504;-62
2021/06/19 06:10:31;;;;;;;24.40;22.35;;;;;;;27.25;56.66;101145.94;6256477;28;20321;-62
2021/06/19 06:13:52;;;;;;;20.75;18.95;;;;;;;27.86;54.97;101145.81;6265504;28;20335;-62
2021/06/19 06:17:13;;;;;;;22.00;20.20;;;;;;;27.40;55.89;101147.47;6263894;28;20500;-61
2021/06/19 06:20:33;;;;;;;22.25;20.50;;;;;;;27.44;56.03;101156.13;6258361;28;20524;-62
2021/06/19 06:23:54;;;;;;;22.67;20.65;;;;;;;27.42;56.38;101147.38;6259611;28;20227;-62
2021/06/19 06:27:17;;;;;;;26.25;24.23;;;;;;;27.34;56.62;101163.13;6281232;28;20230;-62
2021/06/19 06:30:39;;;;;;;21.40;19.80;;;;;;;27.86;55.26;101159.19;6282821;28;20227;-61
2021/06/19 06:33:59;;;;;;;24.83;22.55;;;;;;;27.56;55.75;101146.31;6288944;28;20227;-62
2021/06/19 06:37:21;;;;;;;22.48;20.38;;;;;;;27.77;55.16;101165.25;6293893;28;20262;-61
2021/06/19 06:40:42;;;;;;;19.73;17.77;;;;;;;28.11;53.95;101162.66;6280665;28;20231;-61
2021/06/19 06:44:06;;;;;;;21.00;19.20;;;;;;;27.40;55.25;101166.19;6291181;28;20230;-51
2021/06/19 06:47:27;;;;;;;22.02;20.33;;;;;;;27.34;55.74;101171.16;6271460;28;20235;-53
2021/06/19 06:50:47;;;;;;;18.15;16.70;;;;;;;27.96;53.67;101173.59;6289012;28;20262;-52
2021/06/19 06:54:09;;;;;;;18.88;17.02;;;;;;;27.91;54.07;101173.09;6277375;28;20223;-51
2021/06/19 06:57:30;;;;;;;18.63;17.00;;;;;;;28.19;53.00;101165.59;6285600;28;20238;-56
2021/06/19 07:00:52;;;;;;;17.23;15.52;;;;;;;28.37;52.65;101169.50;6274514;28;20716;-55
2021/06/19 07:04:13;;;;;;;16.45;15.05;;;;;;;28.37;51.98;101180.22;6269634;28;20616;-54
2021/06/19 07:07:33;;;;;;;15.23;13.73;;;;;;;27.66;53.11;101180.25;6259708;28;20318;-54
2021/06/19 07:10:54;;;;;;;14.85;13.23;;;;;;;27.65;53.04;101178.56;6255665;28;20240;-56
2021/06/19 07:14:15;;;;;;;12.70;11.52;;;;;;;27.84;51.48;101179.84;6262643;28;20232;-56
2021/06/19 07:17:38;;;;;;;12.63;11.23;;;;;;;27.77;50.98;101192.00;6261509;28;20235;-52
2021/06/19 07:20:58;;;;;;;11.02;9.82;;;;;;;28.41;49.76;101179.00;6251676;28;20694;-56
2021/06/19 07:24:20;;;;;;;12.10;10.63;;;;;;;29.15;48.49;101186.53;6265446;28;20251;-54
2021/06/19 07:27:41;;;;;;;11.15;10.25;;;;;;;28.91;48.10;101191.22;6255724;28;20248;-55
2021/06/19 07:31:02;;;;;;;10.00;8.77;;;;;;;28.07;49.83;101184.34;6261781;28;20232;-53
2021/06/19 07:34:25;;;;;;;8.73;7.75;;;;;;;28.88;48.10;101194.97;6248018;28;20375;-54
2021/06/19 07:37:46;;;;;;;8.80;7.85;;;;;;;28.97;47.07;101193.41;6268342;28;20252;-53
2021/06/19 07:41:08;;;;;;;9.45;7.30;;;;;;;29.08;46.16;101193.38;6257124;28;20228;-55
2021/06/19 07:44:29;;;;;;;6.57;5.95;;;;;;;28.57;46.19;101197.41;6275178;28;20235;-56
2021/06/19 07:47:50;;;;;;;6.28;4.68;;;;;;;28.96;43.37;101197.03;6260522;28;20239;-52
2021/06/19 07:51:12;;;;;;;6.65;4.05;;;;;;;28.30;42.90;101207.59;6268043;28;20526;-56
2021/06/19 07:54:36;;;;;;;5.75;3.83;;;;;;;28.41;42.93;101200.44;6259686;28;20240;-56
2021/06/19 07:57:59;;;;;;;5.32;4.78;;;;;;;29.02;42.67;101205.44;6267463;28;20224;-54
2021/06/19 08:01:19;;;;;;;4.30;3.97;;;;;;;28.89;43.41;101217.25;6263102;28;20244;-55
2021/06/19 08:04:40;;;;;;;6.82;4.05;;;;;;;28.88;42.31;101212.88;6252041;28;20239;-54
2021/06/19 08:08:03;;;;;;;4.03;3.55;;;;;;;28.61;42.88;101216.78;6265954;28;20227;-54
2021/06/19 08:11:26;;;;;;;5.82;3.65;;;;;;;28.79;43.11;101220.69;6261520;28;20231;-57
2021/06/19 08:14:47;;;;;;;4.55;3.45;;;;;;;28.86;42.14;101215.69;6262308;28;20231;-49
2021/06/19 08:18:08;;;;;;;5.97;3.55;;;;;;;28.33;42.28;101208.22;6263377;28;20224;-54
2021/06/19 08:21:29;;;;;;;7.10;3.58;;;;;;;28.24;43.12;101227.69;6255953;28;20227;-53
2021/06/19 08:24:52;;;;;;;3.58;3.10;;;;;;;28.92;41.76;101228.59;6264563;28;20247;-48
2021/06/19 08:28:12;;;;;;;3.53;3.22;;;;;;;29.16;40.91;101224.94;6268959;28;20322;-50
2021/06/19 08:31:35;;;;;;;3.90;2.83;;;;;;;29.20;40.97;101227.25;6258661;28;20239;-49
2021/06/19 08:34:55;;;;;;;2.78;2.58;;;;;;;29.47;39.68;101225.97;6264381;28;20231;-54
2021/06/19 08:38:16;;;;;;;2.47;2.38;;;;;;;29.25;40.35;101219.69;6257792;28;20232;-48
2021/06/19 08:41:39;;;;;;;2.97;2.78;;;;;;;29.61;39.88;101224.81;6268614;28;20244;-49
2021/06/19 08:45:00;;;;;;;4.03;2.45;;;;;;;29.85;38.71;101235.34;6267615;28;23119;-49
2021/06/19 08:48:21;;;;;;;2.50;2.10;;;;;;;29.40;39.14;101227.44;6262984;28;20990;-52
2021/06/19 08:51:43;;;;;;;3.90;1.88;;;;;;;29.53;38.79;101238.03;6267872;28;20242;-49
2021/06/19 08:55:06;;;;;;;2.00;1.90;;;;;;;29.16;39.52;101231.16;6261804;28;20230;-50
2021/06/19 08:58:28;;;;;;;3.40;2.55;;;;;;;28.89;39.70;101223.50;6263623;28;20228;-51
2021/06/19 09:01:49;;;;;;;4.63;2.45;;;;;;;29.29;39.17;101232.84;6262847;28;20232;-52
2021/06/19 09:05:13;;;;;;;3.25;2.92;;;;;;;28.94;39.66;101247.25;6256952;28;20224;-49
2021/06/19 09:08:34;;;;;;;2.60;2.40;;;;;;;29.38;38.77;101238.28;6259285;28;20228;-52
2021/06/19 09:11:55;;;;;;;4.32;2.50;;;;;;;29.57;38.82;101251.06;6259485;28;20241;-52
2021/06/19 09:15:19;;;;;;;2.67;2.47;;;;;;;29.39;38.57;101237.34;6257185;28;20236;-50
2021/06/19 09:18:39;;;;;;;3.15;2.75;;;;;;;29.17;39.48;101237.38;6267449;28;20495;-52
2021/06/19 09:22:15;;;;;;;3.75;2.67;;;;;;;29.01;40.03;101256.50;6251004;28;20227;-50
2021/06/19 09:25:36;;;;;;;3.60;3.30;;;;;;;29.45;39.39;101246.72;6264215;28;20272;-50
2021/06/19 09:29:04;;;;;;;3.00;2.42;;;;;;;29.71;38.39;101249.06;6261785;28;20326;-49
2021/06/19 09:32:27;;;;;;;3.40;3.10;;;;;;;28.98;40.65;101251.38;6255448;28;20904;-53
2021/06/19 09:35:48;;;;;;;7.35;3.60;;;;;;;29.09;41.19;101255.88;6261233;28;20235;-53
2021/06/19 09:39:12;;;;;;;3.55;3.20;;;;;;;29.80;39.99;101254.53;6259179;28;20227;-50
2021/06/19 09:42:32;;;;;;;5.82;2.97;;;;;;;29.32;40.71;101267.47;6273986;28;20223;-50
2021/06/19 09:46:01;;;;;;;3.40;2.78;;;;;;;28.79;41.77;101266.25;6269388;28;20254;-52
2021/06/19 09:49:30;;;;;;;3.58;2.83;;;;;;;28.63;42.18;101277.34;6262323;28;20226;-49
2021/06/19 09:52:52;;;;;;;5.65;3.17;;;;;;;29.16;41.21;101274.06;6268850;28;20227;-52
2021/06/19 09:56:14;;;;;;;3.25;3.03;;;;;;;29.34;40.83;101284.28;6260553;28;20226;-55
2021/06/19 09:59:38;;;;;;;6.68;3.20;;;;;;;28.39;42.45;101285.41;6262110;28;20247;-53
2021/06/19 10:03:04;;;;;;;3.05;2.85;;;;;;;29.56;40.73;101281.53;6259437;28;20227;-53
2021/06/19 10:06:28;;;;;;;2.80;2.60;;;;;;;29.40;41.40;101265.84;6253783;28;20227;-53
2021/06/19 10:09:50;;;;;;;2.75;2.25;;;;;;;29.87;39.54;101276.34;6262427;28;20569;-51
2021/06/19 10:13:13;;;;;;;3.00;2.72;;;;;;;29.14;40.73;101269.78;6260962;28;20231;-52
2021/06/19 10:16:34;;;;;;;4.07;3.10;;;;;;;29.80;40.27;101278.69;6261778;28;20625;-50
2021/06/19 10:19:56;;;;;;;2.78;2.58;;;;;;;29.31;39.65;101280.00;6250066;28;20231;-53
2021/06/19 10:23:19;;;;;;;3.95;2.42;;;;;;;29.61;39.67;101283.84;6257725;28;20538;-51
2021/06/19 10:26:41;;;;;;;3.17;2.70;;;;;;;29.03;40.61;101284.03;6271989;28;20224;-49
2021/06/19 10:30:04;;;;;;;3.08;2.78;;;;;;;29.70;40.50;101279.53;6265945;28;20752;-53
2021/06/19 10:33:26;;;;;;;3.03;2.83;;;;;;;30.07;39.57;101281.84;6254389;28;20593;-50
2021/06/19 10:36:47;;;;;;;8.95;3.38;;;;;;;29.45;39.92;101276.22;6271712;28;20222;-54
2021/06/19 10:40:22;;;;;;;2.75;2.08;;;;;;;29.41;43.50;101277.41;6262799;28;20782;-58
2021/06/19 10:43:44;;;;;;;2.80;2.60;;;;;;;29.44;41.27;101267.28;6264205;28;20864;-60
2021/06/19 10:47:05;;;;;;;3.35;2.38;;;;;;;29.61;40.11;101268.59;6265852;28;20510;-59
2021/06/19 10:50:27;;;;;;;4.03;3.22;;;;;;;29.35;42.34;101277.91;6268517;28;20228;-53
2021/06/19 10:54:07;;;;;;;5.05;2.20;;;;;;;29.77;41.06;101275.41;6273342;28;20244;-58
2021/06/19 10:57:43;;;;;;;3.13;2.92;;;;;;;29.79;39.68;101270.75;6238763;28;20232;-59
2021/06/19 11:01:05;;;;;;;2.17;1.98;;;;;;;29.92;40.95;101284.88;6254295;28;20230;-60
2021/06/19 11:04:44;;;;;;;7.07;2.50;;;;;;;30.15;39.64;101284.78;6269089;28;20616;-56
2021/06/19 11:08:05;;;;;;;3.55;2.80;;;;;;;29.96;40.65;101278.25;6255469;28;20266;-53
2021/06/19 11:11:54;;;;;;;5.43;3.05;;;;;;;30.01;38.99;101273.34;6267778;28;20257;-59
2021/06/19 11:15:34;;;;;;;3.15;2.47;;;;;;;30.14;41.18;101285.72;6262769;28;20231;-57
2021/06/19 11:18:55;;;;;;;2.03;1.92;;;;;;;30.06;39.50;101269.44;6261988;28;20817;-56
2021/06/19 11:22:37;;;;;;;3.95;2.90;;;;;;;29.51;39.84;101267.66;6256663;28;20232;-52
2021/06/19 11:26:07;;;;;;;2.85;2.42;;;;;;;29.84;39.53;101261.34;6266748;28;20613;-57
2021/06/19 11:29:38;;;;;;;3.10;2.08;;;;;;;30.21;38.21;101271.66;6268539;28;20235;-58
2021/06/19 11:33:34;;;;;;;5.53;2.03;;;;;;;30.21;38.81;101262.75;6269050;28;20235;-58
2021/06/19 11:37:00;;;;;;;3.35;2.40;;;;;;;29.68;38.19;101263.56;6259814;28;20223;-56
2021/06/19 11:40:27;;;;;;;2.25;2.05;;;;;;;30.03;37.24;101252.59;6267685;28;20767;-57
2021/06/19 11:43:49;;;;;;;3.28;1.85;;;;;;;30.47;36.96;101239.03;6270246;28;20298;-55
2021/06/19 11:47:11;;;;;;;3.25;2.40;;;;;;;30.85;35.95;101231.31;6272457;28;20235;-57
2021/06/19 11:50:32;;;;;;;2.50;2.00;;;;;;;31.03;36.02;101243.13;6258213;28;20746;-58
2021/06/19 11:53:55;;;;;;;2.72;2.38;;;;;;;31.10;36.54;101241.59;6261161;28;20228;-55
2021/06/19 11:57:25;;;;;;;3.45;2.20;;;;;;;31.23;36.01;101241.31;6279284;28;20239;-56
2021/06/19 12:00:53;;;;;;;1.90;1.80;;;;;;;31.39;36.13;101240.81;6264059;28;20227;-57
2021/06/19 12:04:16;;;;;;;2.25;1.73;;;;;;;31.21;35.78;101248.69;6287938;28;20250;-55
2021/06/19 12:07:38;;;;;;;2.03;1.77;;;;;;;31.00;34.93;101238.03;6292656;28;20686;-58
2021/06/19 12:11:00;;;;;;;2.05;1.95;;;;;;;31.11;34.73;101232.53;6289903;28;20321;-57
2021/06/19 12:14:25;;;;;;;2.65;2.22;;;;;;;30.57;36.05;101233.72;6287230;28;20701;-57
2021/06/19 12:17:46;;;;;;;2.22;2.13;;;;;;;30.89;35.88;101235.41;6266598;28;20238;-57
2021/06/19 12:21:09;;;;;;;4.07;2.22;;;;;;;30.64;35.49;101234.03;6263601;28;20243;-53
2021/06/19 12:24:32;;;;;;;2.22;2.05;;;;;;;31.27;35.18;101241.91;6254495;28;20261;-58
2021/06/19 12:27:55;;;;;;;2.20;2.00;;;;;;;31.29;33.08;101245.31;6259748;28;20232;-54
2021/06/19 12:31:17;;;;;;;2.42;1.95;;;;;;;31.79;33.55;101247.94;6260318;28;20231;-56
2021/06/19 12:34:38;;;;;;;2.47;2.28;;;;;;;32.28;32.76;101240.69;6261603;28;20236;-58
2021/06/19 12:38:00;;;;;;;5.95;2.05;;;;;;;31.14;33.12;101243.03;6271209;28;20226;-59
2021/06/19 12:41:21;;;;;;;3.45;2.60;;;;;;;31.82;32.70;101230.66;6273798;28;20236;-55
2021/06/19 12:45:04;;;;;;;2.25;2.05;;;;;;;31.80;33.90;101230.78;6262856;28;20231;-57
2021/06/19 12:48:28;;;;;;;2.08;1.90;;;;;;;31.62;33.03;101229.78;6249870;28;20228;-58
2021/06/19 12:51:49;;;;;;;2.00;1.90;;;;;;;32.62;31.85;101228.53;6253190;28;20239;-58
2021/06/19 12:55:12;;;;;;;2.65;2.17;;;;;;;31.87;32.59;101213.06;6252878;28;20232;-56
2021/06/19 12:58:36;;;;;;;2.20;1.95;;;;;;;31.42;33.19;101224.38;6268378;28;20318;-57
2021/06/19 13:02:04;;;;;;;3.72;2.05;;;;;;;31.75;32.97;101216.91;6254245;28;20227;-52
2021/06/19 13:05:24;;;;;;;2.47;1.98;;;;;;;32.27;31.88;101220.09;6258736;28;20215;-50
2021/06/19 13:08:55;;;;;;;2.20;2.10;;;;;;;32.26;31.12;101212.16;6261842;28;20665;-49
2021/06/19 13:12:18;;;;;;;1.52;1.42;;;;;;;32.24;31.12;101217.72;6260763;28;20239;-52
2021/06/19 13:15:57;;;;;;;2.33;2.13;;;;;;;32.93;30.17;101210.22;6293160;28;20629;-54
2021/06/19 13:19:20;;;;;;;1.85;1.75;;;;;;;32.57;30.32;101212.78;6290598;28;20231;-52
2021/06/19 13:22:41;;;;;;;3.40;2.00;;;;;;;33.12;29.41;101210.13;6275032;28;20613;-49
2021/06/19 13:26:08;;;;;;;2.55;2.13;;;;;;;32.98;29.58;101218.72;6283752;28;20234;-52
2021/06/19 13:29:29;;;;;;;2.00;1.90;;;;;;;34.00;28.11;101220.22;6284473;28;20227;-51
2021/06/19 13:32:50;;;;;;;2.15;1.75;;;;;;;33.78;27.61;101218.91;6276764;28;20236;-51
2021/06/19 13:36:41;;;;;;;2.33;2.05;;;;;;;35.82;25.89;101206.44;6286940;28;20247;-52
2021/06/19 13:40:03;;;;;;;2.08;1.80;;;;;;;36.90;23.11;101199.75;6281900;28;20223;-49
2021/06/19 13:43:24;;;;;;;4.00;2.00;;;;;;;37.31;23.62;101205.78;6288702;28;20267;-52
2021/06/19 13:46:47;;;;;;;2.00;1.90;;;;;;;37.40;22.87;101207.41;6284595;28;20260;-51
2021/06/19 13:50:09;;;;;;;5.05;2.08;;;;;;;37.13;23.57;101200.66;6285615;28;20471;-47
2021/06/19 13:53:32;;;;;;;2.40;2.20;;;;;;;37.41;23.47;101191.97;6283249;28;20223;-52
2021/06/19 13:56:54;;;;;;;2.70;2.50;;;;;;;35.25;25.68;101197.25;6268179;28;20596;-52
2021/06/19 14:00:16;;;;;;;2.25;2.05;;;;;;;34.56;26.64;101185.63;6261683;28;20322;-52
2021/06/19 14:03:37;;;;;;;2.28;2.03;;;;;;;34.23;26.88;101195.44;6268222;28;20322;-52
2021/06/19 14:06:58;;;;;;;2.65;2.45;;;;;;;33.79;27.04;101198.97;6256757;28;20259;-52
2021/06/19 14:10:20;;;;;;;2.83;1.83;;;;;;;33.95;26.63;101184.75;6252175;28;20233;-52
2021/06/19 14:13:41;;;;;;;4.00;1.70;;;;;;;35.32;25.21;101183.88;6258867;28;20236;-48
2021/06/19 14:17:02;;;;;;;2.63;1.83;;;;;;;35.63;25.02;101185.91;6263413;28;20240;-51
2021/06/19 14:20:23;;;;;;;2.42;2.22;;;;;;;34.94;24.97;101201.50;6250118;28;20236;-49
2021/06/19 14:23:45;;;;;;;4.93;1.80;;;;;;;35.15;25.11;101203.78;6262607;28;20231;-51
2021/06/19 14:27:10;;;;;;;1.73;1.63;;;;;;;34.94;25.59;101199.69;6265771;28;20228;-51
2021/06/19 14:30:31;;;;;;;2.17;1.67;;;;;;;36.03;24.80;101186.94;6262085;28;20251;-49
2021/06/19 14:33:53;;;;;;;2.42;2.22;;;;;;;36.35;24.81;101201.44;6296219;28;20227;-48
2021/06/19 14:37:15;;;;;;;2.28;2.08;;;;;;;35.14;26.14;101202.94;6280026;28;20604;-50
2021/06/19 14:40:36;;;;;;;2.20;2.00;;;;;;;35.45;25.97;101205.88;6257598;28;20259;-51
2021/06/19 14:43:58;;;;;;;1.75;1.65;;;;;;;36.22;24.26;101199.31;6264247;28;20250;-49
2021/06/19 14:47:20;;;;;;;4.05;2.00;;;;;;;35.77;22.66;101204.25;6260648;28;20619;-51
2021/06/19 14:50:40;;;;;;;1.40;1.38;;;;;;;35.67;23.37;101192.72;6258969;28;20231;-53
2021/06/19 14:54:01;;;;;;;1.75;1.65;;;;;;;35.98;23.42;101200.97;6257921;28;20568;-50
2021/06/19 14:57:22;;;;;;;4.13;2.20;;;;;;;36.79;23.05;101199.09;6265293;28;20224;-51
2021/06/19 15:00:45;;;;;;;2.75;1.60;;;;;;;36.06;23.56;101197.41;6271197;28;20223;-49
2021/06/19 15:04:06;;;;;;;1.50;1.35;;;;;;;36.57;23.78;101189.84;6274187;28;20227;-52
2021/06/19 15:07:27;;;;;;;2.90;2.05;;;;;;;36.40;23.95;101196.34;6264122;28;20235;-49
2021/06/19 15:10:48;;;;;;;2.42;1.95;;;;;;;36.70;23.54;101194.75;6254838;28;20266;-49
2021/06/19 15:14:09;;;;;;;2.53;2.00;;;;;;;37.32;23.28;101193.03;6248747;28;20252;-50
2021/06/19 15:17:31;;;;;;;2.78;2.25;;;;;;;37.57;23.40;101190.97;6261758;28;20220;-52
2021/06/19 15:20:52;;;;;;;4.03;2.33;;;;;;;37.37;23.69;101191.47;6266550;28;20231;-54
2021/06/19 15:24:13;;;;;;;2.20;2.10;;;;;;;35.95;24.09;101182.38;6250508;28;20574;-48
2021/06/19 15:27:34;;;;;;;2.92;2.17;;;;;;;35.85;24.50;101177.16;6258283;28;20224;-53
2021/06/19 15:30:55;;;;;;;2.65;1.90;;;;;;;35.88;24.46;101174.06;6256176;28;20231;-49